Time;durP1;ratioP1;P1;durP2;ratioP2;P2;SDS_P1;SDS_P2;PMS_P1;PMS_P2;Temp;Humidity;BMP_temperature;BMP_pressure;BME280_temperature;BME280_humidity;BME280_pressure;Samples;Min_cycle;Max_cycle;Signal;HPM_P1;HPM_P2
2021/06/13 00:02:14;;;;;;;30.20;19.15;;;;;;;;;;5073118;28;20032;-46
2021/06/13 00:04:41;;;;;;;45.92;33.33;;;;;;;;;;5073185;28;20388;-47
2021/06/13 00:07:07;;;;;;;28.02;17.67;;;;;;;;;;5073089;28;20062;-49
2021/06/13 00:09:33;;;;;;;39.28;23.50;;;;;;;;;;5072915;28;20024;-47
2021/06/13 00:11:59;;;;;;;17.15;11.80;;;;;;;;;;5073305;28;20112;-45
2021/06/13 00:14:25;;;;;;;43.95;27.00;;;;;;;;;;5072797;28;20048;-44
2021/06/13 00:16:52;;;;;;;40.88;26.50;;;;;;;;;;5073343;28;20048;-45
2021/06/13 00:19:18;;;;;;;61.65;40.67;;;;;;;;;;5073093;28;20094;-46
2021/06/13 00:21:45;;;;;;;38.25;24.90;;;;;;;;;;5073065;28;20384;-46
2021/06/13 00:24:11;;;;;;;20.70;15.43;;;;;;;;;;5073188;28;20021;-45
2021/06/13 00:26:37;;;;;;;16.55;11.85;;;;;;;;;;5072953;28;20017;-45
2021/06/13 00:29:03;;;;;;;25.73;18.15;;;;;;;;;;5072942;28;20435;-46
2021/06/13 00:31:29;;;;;;;10.48;8.02;;;;;;;;;;5072952;28;20017;-46
2021/06/13 00:33:55;;;;;;;12.85;9.93;;;;;;;;;;5073060;28;20469;-45
2021/06/13 00:36:21;;;;;;;9.00;7.03;;;;;;;;;;5072889;28;20016;-45
2021/06/13 00:38:48;;;;;;;9.45;7.18;;;;;;;;;;5072871;28;20496;-44
2021/06/13 00:41:18;;;;;;;10.52;8.60;;;;;;;;;;5072840;28;20029;-45
2021/06/13 00:43:44;;;;;;;6.10;5.32;;;;;;;;;;5072528;28;20125;-44
2021/06/13 00:46:10;;;;;;;7.50;6.20;;;;;;;;;;5072853;28;20479;-45
2021/06/13 00:48:36;;;;;;;6.07;5.03;;;;;;;;;;5072988;28;20439;-44
2021/06/13 00:51:02;;;;;;;5.28;4.68;;;;;;;;;;5072812;28;20138;-44
2021/06/13 00:53:29;;;;;;;8.27;5.07;;;;;;;;;;5072690;28;20025;-45
2021/06/13 00:55:56;;;;;;;4.97;4.47;;;;;;;;;;5072764;28;20690;-44
2021/06/13 00:58:22;;;;;;;5.15;4.57;;;;;;;;;;5072548;28;20067;-45
2021/06/13 01:00:48;;;;;;;15.60;5.10;;;;;;;;;;5087925;28;20059;-45
2021/06/13 01:03:15;;;;;;;13.35;6.68;;;;;;;;;;5072579;28;20032;-45
2021/06/13 01:05:41;;;;;;;19.88;12.15;;;;;;;;;;5072533;28;20419;-44
2021/06/13 01:08:13;;;;;;;13.73;10.93;;;;;;;;;;5072668;28;20028;-44
2021/06/13 01:10:58;;;;;;;23.35;16.48;;;;;;;;;;5072693;28;20017;-44
2021/06/13 01:13:40;;;;;;;17.77;13.43;;;;;;;;;;5072396;28;20041;-44
2021/06/13 01:16:10;;;;;;;22.55;14.30;;;;;;;;;;5073726;28;20028;-44
2021/06/13 01:18:41;;;;;;;16.75;11.90;;;;;;;;;;5076240;28;20095;-45
2021/06/13 01:21:08;;;;;;;26.27;16.98;;;;;;;;;;5076191;28;20160;-44
2021/06/13 01:23:41;;;;;;;26.45;18.25;;;;;;;;;;5091456;28;20565;-44
2021/06/13 01:26:22;;;;;;;23.05;16.05;;;;;;;;;;5076147;28;20020;-44
2021/06/13 01:29:01;;;;;;;33.25;23.88;;;;;;;;;;5076060;28;20017;-44
2021/06/13 01:31:38;;;;;;;35.47;22.35;;;;;;;;;;5076003;28;20065;-45
2021/06/13 01:34:07;;;;;;;29.00;19.83;;;;;;;;;;5075793;28;20029;-45
2021/06/13 01:36:34;;;;;;;26.00;19.25;;;;;;;;;;5075833;28;20023;-44
2021/06/13 01:39:01;;;;;;;47.53;32.75;;;;;;;;;;5075730;28;20023;-45
2021/06/13 01:41:30;;;;;;;88.03;63.78;;;;;;;;;;5075667;28;20032;-45
2021/06/13 01:43:56;;;;;;;24.02;16.48;;;;;;;;;;5075516;28;20039;-45
2021/06/13 01:46:23;;;;;;;24.50;17.33;;;;;;;;;;5075650;28;20468;-46
2021/06/13 01:48:51;;;;;;;27.08;17.98;;;;;;;;;;5075453;28;20461;-46
2021/06/13 01:51:17;;;;;;;16.42;11.50;;;;;;;;;;5075535;28;20016;-45
2021/06/13 01:53:44;;;;;;;9.68;7.80;;;;;;;;;;5075514;28;20157;-45
2021/06/13 01:56:14;;;;;;;11.77;9.43;;;;;;;;;;5075472;28;20025;-45
2021/06/13 01:58:41;;;;;;;11.15;8.40;;;;;;;;;;5075364;28;20484;-45
2021/06/13 02:01:08;;;;;;;14.23;10.63;;;;;;;;;;5075303;28;20108;-45
2021/06/13 02:03:36;;;;;;;15.20;10.10;;;;;;;;;;5075162;28;20036;-45
2021/06/13 02:06:03;;;;;;;14.13;11.20;;;;;;;;;;5075212;28;20460;-45
2021/06/13 02:08:33;;;;;;;10.20;8.60;;;;;;;;;;5075243;28;20047;-45
2021/06/13 02:11:00;;;;;;;8.73;6.47;;;;;;;;;;5075223;28;20021;-45
2021/06/13 02:13:26;;;;;;;7.07;6.38;;;;;;;;;;5074877;28;20055;-45
2021/06/13 02:15:54;;;;;;;7.07;6.38;;;;;;;;;;5075156;28;20029;-45
2021/06/13 02:18:21;;;;;;;6.78;5.97;;;;;;;;;;5090770;28;21427;-45
2021/06/13 02:20:48;;;;;;;6.40;5.80;;;;;;;;;;5075434;28;20382;-45
2021/06/13 02:23:14;;;;;;;6.55;5.38;;;;;;;;;;5074981;28;20141;-46
2021/06/13 02:25:40;;;;;;;8.30;5.95;;;;;;;;;;5075030;28;20082;-45
2021/06/13 02:28:06;;;;;;;6.18;5.57;;;;;;;;;;5073803;28;20021;-45
2021/06/13 02:30:34;;;;;;;7.15;5.75;;;;;;;;;;5074823;28;20028;-45
2021/06/13 02:33:02;;;;;;;7.93;5.80;;;;;;;;;;5074809;28;20119;-44
2021/06/13 02:35:28;;;;;;;6.60;6.00;;;;;;;;;;5074728;28;20020;-45
2021/06/13 02:37:55;;;;;;;6.15;5.55;;;;;;;;;;5074709;28;20033;-44
2021/06/13 02:40:22;;;;;;;18.13;12.88;;;;;;;;;;5074799;28;20477;-44
2021/06/13 02:42:48;;;;;;;20.10;11.27;;;;;;;;;;5074631;28;20044;-45
2021/06/13 02:45:16;;;;;;;18.00;13.60;;;;;;;;;;5074580;28;20074;-46
2021/06/13 02:47:44;;;;;;;18.63;12.95;;;;;;;;;;5074382;28;20067;-45
2021/06/13 02:50:11;;;;;;;12.75;9.63;;;;;;;;;;5074607;28;20028;-45
2021/06/13 02:52:46;;;;;;;10.35;7.57;;;;;;;;;;5074690;28;20055;-44
2021/06/13 02:55:15;;;;;;;10.68;9.10;;;;;;;;;;5074627;28;20056;-45
2021/06/13 02:57:49;;;;;;;7.78;6.97;;;;;;;;;;5074358;28;20384;-45
2021/06/13 03:00:15;;;;;;;7.50;6.25;;;;;;;;;;5074100;28;20029;-45
2021/06/13 03:02:44;;;;;;;6.43;5.72;;;;;;;;;;5089740;28;20384;-45
2021/06/13 03:05:11;;;;;;;7.63;6.25;;;;;;;;;;5074367;28;20438;-45
2021/06/13 03:07:37;;;;;;;7.35;5.88;;;;;;;;;;5074074;28;20350;-45
2021/06/13 03:10:06;;;;;;;7.15;5.82;;;;;;;;;;5074228;28;20427;-44
2021/06/13 03:12:32;;;;;;;7.68;5.65;;;;;;;;;;5073951;28;20027;-44
2021/06/13 03:14:59;;;;;;;7.18;5.88;;;;;;;;;;5073693;28;20059;-44
2021/06/13 03:17:26;;;;;;;6.22;5.63;;;;;;;;;;5074035;28;20020;-44
2021/06/13 03:19:52;;;;;;;6.60;5.90;;;;;;;;;;5073936;28;20032;-45
2021/06/13 03:22:18;;;;;;;6.07;5.47;;;;;;;;;;5073784;28;20082;-45
2021/06/13 03:24:46;;;;;;;6.72;6.07;;;;;;;;;;5073899;28;20035;-45
2021/06/13 03:27:13;;;;;;;6.97;6.28;;;;;;;;;;5073818;28;20027;-45
2021/06/13 03:29:41;;;;;;;7.65;5.88;;;;;;;;;;5073674;28;20052;-45
2021/06/13 03:32:09;;;;;;;5.55;5.03;;;;;;;;;;5073759;28;20024;-45
2021/06/13 03:34:36;;;;;;;5.45;4.85;;;;;;;;;;5073834;28;20024;-44
2021/06/13 03:37:02;;;;;;;6.18;5.57;;;;;;;;;;5073992;28;20024;-48
2021/06/13 03:39:29;;;;;;;6.00;5.40;;;;;;;;;;5073722;28;20037;-45
2021/06/13 03:41:55;;;;;;;5.25;4.78;;;;;;;;;;5073557;28;20111;-45
2021/06/13 03:44:21;;;;;;;5.60;5.10;;;;;;;;;;5073439;28;20032;-46
2021/06/13 03:46:47;;;;;;;6.80;5.30;;;;;;;;;;5073749;28;20021;-45
2021/06/13 03:49:16;;;;;;;7.63;5.82;;;;;;;;;;5073687;28;20021;-45
2021/06/13 03:51:43;;;;;;;7.25;5.10;;;;;;;;;;5073518;28;20415;-45
2021/06/13 03:54:09;;;;;;;5.35;4.85;;;;;;;;;;5073543;28;20056;-45
2021/06/13 03:56:40;;;;;;;7.95;4.75;;;;;;;;;;5073340;28;20460;-46
2021/06/13 03:59:07;;;;;;;6.10;5.30;;;;;;;;;;5073243;28;20056;-45
2021/06/13 04:01:33;;;;;;;6.00;5.03;;;;;;;;;;5073409;28;20032;-45
2021/06/13 04:04:00;;;;;;;6.63;4.97;;;;;;;;;;5073466;28;20032;-45
2021/06/13 04:06:28;;;;;;;5.78;4.88;;;;;;;;;;5073483;28;20021;-44
2021/06/13 04:08:55;;;;;;;4.63;4.22;;;;;;;;;;5073676;28;20024;-44
2021/06/13 04:11:22;;;;;;;5.55;4.95;;;;;;;;;;5073224;28;20123;-44
2021/06/13 04:13:48;;;;;;;6.80;4.57;;;;;;;;;;5072905;28;20055;-44
2021/06/13 04:16:16;;;;;;;7.38;4.80;;;;;;;;;;5073058;28;20059;-44
2021/06/13 04:18:42;;;;;;;6.78;5.20;;;;;;;;;;5088380;28;20120;-44
2021/06/13 04:21:13;;;;;;;4.97;4.47;;;;;;;;;;5073157;28;20481;-44
2021/06/13 04:23:40;;;;;;;5.38;4.88;;;;;;;;;;5073164;28;20068;-44
2021/06/13 04:26:06;;;;;;;7.50;5.07;;;;;;;;;;5073236;28;20376;-45
2021/06/13 04:28:33;;;;;;;6.53;4.75;;;;;;;;;;5073160;28;20056;-42
2021/06/13 04:31:01;;;;;;;5.22;4.72;;;;;;;;;;5073104;28;20501;-45
2021/06/13 04:33:28;;;;;;;5.78;4.95;;;;;;;;;;5073164;28;20052;-45
2021/06/13 04:35:54;;;;;;;5.75;5.05;;;;;;;;;;5073060;28;20024;-45
2021/06/13 04:38:20;;;;;;;5.55;4.95;;;;;;;;;;5073229;28;20373;-44
2021/06/13 04:40:46;;;;;;;6.88;5.03;;;;;;;;;;5072973;28;20031;-46
2021/06/13 04:43:12;;;;;;;5.97;4.72;;;;;;;;;;5072662;28;20047;-44
2021/06/13 04:45:38;;;;;;;5.55;4.88;;;;;;;;;;5073040;28;20496;-43
2021/06/13 04:48:06;;;;;;;5.97;4.93;;;;;;;;;;5073039;28;20031;-46
2021/06/13 04:50:33;;;;;;;5.35;4.85;;;;;;;;;;5073081;28;20020;-45
2021/06/13 04:53:01;;;;;;;5.65;5.10;;;;;;;;;;5076737;28;20032;-45
2021/06/13 04:55:35;;;;;;;5.63;4.85;;;;;;;;;;5076847;28;20082;-45
2021/06/13 04:58:04;;;;;;;5.03;4.40;;;;;;;;;;5091914;28;20035;-44
2021/06/13 05:00:30;;;;;;;5.65;4.93;;;;;;;;;;5076495;28;20101;-45
2021/06/13 05:02:56;;;;;;;6.78;5.30;;;;;;;;;;5076418;28;20039;-46
2021/06/13 05:05:22;;;;;;;7.45;4.80;;;;;;;;;;5076607;28;20059;-45
2021/06/13 05:07:48;;;;;;;4.60;4.20;;;;;;;;;;5076497;28;20024;-44
2021/06/13 05:10:14;;;;;;;5.35;4.65;;;;;;;;;;5076350;28;20024;-45
2021/06/13 05:12:45;;;;;;;6.80;4.70;;;;;;;;;;5076463;28;20025;-46
2021/06/13 05:15:11;;;;;;;5.47;4.43;;;;;;;;;;5074894;28;20040;-45
2021/06/13 05:17:40;;;;;;;4.30;3.83;;;;;;;;;;5076358;28;20025;-44
2021/06/13 05:20:06;;;;;;;5.32;4.10;;;;;;;;;;5076214;28;20036;-44
2021/06/13 05:22:32;;;;;;;6.22;4.30;;;;;;;;;;5076108;28;20427;-45
2021/06/13 05:24:58;;;;;;;3.55;3.25;;;;;;;;;;5076016;28;20107;-44
2021/06/13 05:27:24;;;;;;;4.25;3.65;;;;;;;;;;5076610;28;20020;-44
2021/06/13 05:29:50;;;;;;;6.95;5.40;;;;;;;;;;5076254;28;20020;-45
2021/06/13 05:32:16;;;;;;;11.18;7.72;;;;;;;;;;5076125;28;20070;-45
2021/06/13 05:34:42;;;;;;;4.78;4.15;;;;;;;;;;5075930;28;20028;-45
2021/06/13 05:37:08;;;;;;;4.15;3.75;;;;;;;;;;5076013;28;20417;-44
2021/06/13 05:39:34;;;;;;;5.63;4.18;;;;;;;;;;5075927;28;20020;-45
2021/06/13 05:42:00;;;;;;;5.05;3.85;;;;;;;;;;5075774;28;20100;-44
2021/06/13 05:44:27;;;;;;;4.80;4.10;;;;;;;;;;5075828;28;20037;-44
2021/06/13 05:46:53;;;;;;;5.70;4.35;;;;;;;;;;5075595;28;20025;-44
2021/06/13 05:49:19;;;;;;;3.97;2.90;;;;;;;;;;5075768;28;20031;-44
2021/06/13 05:51:45;;;;;;;4.25;3.17;;;;;;;;;;5075958;28;20185;-44
2021/06/13 05:54:11;;;;;;;4.88;3.15;;;;;;;;;;5076258;28;20029;-44
2021/06/13 05:56:37;;;;;;;3.83;2.85;;;;;;;;;;5075624;28;20067;-44
2021/06/13 05:59:03;;;;;;;5.07;2.80;;;;;;;;;;5075768;28;20123;-44
2021/06/13 06:01:29;;;;;;;5.10;4.00;;;;;;;;;;5075318;28;20099;-45
2021/06/13 06:03:55;;;;;;;6.70;3.15;;;;;;;;;;5075413;28;20046;-45
2021/06/13 06:06:21;;;;;;;5.40;2.80;;;;;;;;;;5075298;28;20013;-44
2021/06/13 06:08:47;;;;;;;4.10;2.40;;;;;;;;;;5075389;28;20028;-44
2021/06/13 06:11:13;;;;;;;5.40;2.72;;;;;;;;;;5075217;28;20043;-44
2021/06/13 06:13:39;;;;;;;4.80;2.85;;;;;;;;;;5075107;28;20052;-44
2021/06/13 06:16:06;;;;;;;3.47;2.65;;;;;;;;;;5075071;28;20025;-44
2021/06/13 06:18:34;;;;;;;5.13;2.53;;;;;;;;;;5075216;28;20017;-44
2021/06/13 06:21:00;;;;;;;4.68;2.15;;;;;;;;;;5075085;28;20025;-45
2021/06/13 06:23:26;;;;;;;4.68;2.58;;;;;;;;;;5074852;28;20115;-44
2021/06/13 06:25:52;;;;;;;3.17;2.28;;;;;;;;;;5074874;28;20043;-45
2021/06/13 06:28:18;;;;;;;3.08;2.40;;;;;;;;;;5090508;28;20040;-44
2021/06/13 06:30:44;;;;;;;3.65;2.42;;;;;;;;;;5075034;28;20024;-45
2021/06/13 06:33:10;;;;;;;2.97;2.10;;;;;;;;;;5074775;28;20021;-45
2021/06/13 06:35:36;;;;;;;2.70;2.03;;;;;;;;;;5074761;28;20024;-45
2021/06/13 06:38:02;;;;;;;4.55;2.08;;;;;;;;;;5074786;28;20029;-45
2021/06/13 06:40:28;;;;;;;5.18;3.28;;;;;;;;;;5074719;28;20024;-46
2021/06/13 06:42:55;;;;;;;6.07;3.90;;;;;;;;;;5074498;28;20044;-45
2021/06/13 06:45:21;;;;;;;5.70;2.78;;;;;;;;;;5074723;28;20024;-45
2021/06/13 06:47:47;;;;;;;5.90;2.25;;;;;;;;;;5075026;28;20115;-45
2021/06/13 06:50:13;;;;;;;3.13;2.53;;;;;;;;;;5074480;28;20024;-45
2021/06/13 06:52:39;;;;;;;3.65;2.30;;;;;;;;;;5074493;28;20028;-46
2021/06/13 06:55:06;;;;;;;4.47;2.78;;;;;;;;;;5074347;28;20035;-46
2021/06/13 06:57:32;;;;;;;3.28;2.13;;;;;;;;;;5074333;28;20035;-45
2021/06/13 06:59:58;;;;;;;4.43;2.58;;;;;;;;;;5074219;28;20019;-45
2021/06/13 07:02:24;;;;;;;3.13;2.00;;;;;;;;;;5074109;28;20033;-45
2021/06/13 07:04:50;;;;;;;4.38;1.90;;;;;;;;;;5074552;28;20439;-45
2021/06/13 07:07:16;;;;;;;2.75;1.80;;;;;;;;;;5074166;28;20078;-44
2021/06/13 07:09:42;;;;;;;4.20;1.77;;;;;;;;;;5074142;28;20481;-45
2021/06/13 07:12:09;;;;;;;2.53;1.70;;;;;;;;;;5074263;28;20055;-45
2021/06/13 07:14:35;;;;;;;3.80;1.67;;;;;;;;;;5073155;28;20059;-45
2021/06/13 07:17:01;;;;;;;3.83;1.80;;;;;;;;;;5073903;28;20453;-45
2021/06/13 07:19:27;;;;;;;2.65;1.45;;;;;;;;;;5073289;28;20032;-45
2021/06/13 07:21:53;;;;;;;4.53;1.45;;;;;;;;;;5073265;28;21549;-45
2021/06/13 07:24:19;;;;;;;1.98;1.77;;;;;;;;;;5070513;28;20028;-45
2021/06/13 07:26:45;;;;;;;3.95;1.63;;;;;;;;;;5073229;28;20107;-44
2021/06/13 07:29:11;;;;;;;4.45;1.33;;;;;;;;;;5073086;28;20028;-44
2021/06/13 07:31:37;;;;;;;3.47;2.13;;;;;;;;;;5071689;28;20542;-44
2021/06/13 07:34:03;;;;;;;4.03;1.88;;;;;;;;;;5073192;28;20024;-44
2021/06/13 07:36:29;;;;;;;3.70;1.50;;;;;;;;;;5072965;28;20074;-44
2021/06/13 07:38:56;;;;;;;3.70;1.33;;;;;;;;;;5073052;28;20025;-44
2021/06/13 07:41:22;;;;;;;2.45;1.35;;;;;;;;;;5072875;28;20465;-44
2021/06/13 07:43:48;;;;;;;2.78;1.77;;;;;;;;;;5072708;28;20119;-44
2021/06/13 07:46:14;;;;;;;2.85;1.63;;;;;;;;;;5072841;28;20017;-44
2021/06/13 07:48:40;;;;;;;2.03;1.33;;;;;;;;;;5072738;28;20099;-44
2021/06/13 07:51:07;;;;;;;6.20;4.43;;;;;;;;;;5072998;28;20024;-43
2021/06/13 07:53:33;;;;;;;11.93;6.68;;;;;;;;;;5073007;28;20069;-43
2021/06/13 07:55:59;;;;;;;6.07;3.05;;;;;;;;;;5072872;28;20025;-44
2021/06/13 07:58:25;;;;;;;13.23;8.68;;;;;;;;;;5072833;28;20243;-46
2021/06/13 08:00:51;;;;;;;16.65;10.63;;;;;;;;;;5072865;28;20017;-45
2021/06/13 08:03:17;;;;;;;11.27;6.03;;;;;;;;;;5072905;28;20059;-44
2021/06/13 08:05:43;;;;;;;10.80;7.32;;;;;;;;;;5072924;28;20106;-45
2021/06/13 08:08:10;;;;;;;7.03;4.00;;;;;;;;;;5072861;28;20571;-44
2021/06/13 08:10:36;;;;;;;7.65;4.13;;;;;;;;;;5072869;28;20390;-43
2021/06/13 08:13:03;;;;;;;13.85;7.90;;;;;;;;;;5072501;28;20032;-42
2021/06/13 08:15:30;;;;;;;6.22;4.10;;;;;;;;;;5079482;28;20016;-44
2021/06/13 08:17:56;;;;;;;14.27;8.95;;;;;;;;;;5093264;28;20032;-44
2021/06/13 08:20:23;;;;;;;14.23;7.47;;;;;;;;;;5093138;28;20051;-45
2021/06/13 08:22:49;;;;;;;4.95;2.38;;;;;;;;;;5093155;28;20047;-46
2021/06/13 08:25:15;;;;;;;2.03;1.65;;;;;;;;;;5093222;28;20020;-43
2021/06/13 08:27:41;;;;;;;16.15;8.00;;;;;;;;;;5096980;28;20028;-42
2021/06/13 08:30:09;;;;;;;3.70;2.20;;;;;;;;;;5097543;28;20028;-45
2021/06/13 08:32:35;;;;;;;54.90;47.67;;;;;;;;;;5097325;28;20031;-46
2021/06/13 08:35:01;;;;;;;27.65;12.93;;;;;;;;;;5097200;28;20020;-44
2021/06/13 08:37:27;;;;;;;3.00;1.98;;;;;;;;;;5097182;28;20051;-46
2021/06/13 08:39:53;;;;;;;12.10;4.90;;;;;;;;;;5097322;28;20031;-45
2021/06/13 08:42:20;;;;;;;7.05;1.98;;;;;;;;;;5097099;28;20084;-44
2021/06/13 08:44:46;;;;;;;14.32;6.93;;;;;;;;;;5096478;28;20044;-43
2021/06/13 08:47:16;;;;;;;5.32;3.58;;;;;;;;;;5097007;28;20372;-46
2021/06/13 08:49:42;;;;;;;6.75;1.67;;;;;;;;;;5078794;28;20041;-44
2021/06/13 08:52:09;;;;;;;4.25;1.27;;;;;;;;;;5075276;28;20056;-44
2021/06/13 08:54:35;;;;;;;2.67;1.27;;;;;;;;;;5075368;28;20029;-44
2021/06/13 08:57:01;;;;;;;2.95;0.80;;;;;;;;;;5076598;28;20059;-44
2021/06/13 08:59:28;;;;;;;1.60;0.80;;;;;;;;;;5076264;28;20029;-44
2021/06/13 09:01:54;;;;;;;4.38;1.10;;;;;;;;;;5076409;28;20021;-44
2021/06/13 09:04:20;;;;;;;7.20;3.28;;;;;;;;;;5075240;28;20041;-45
2021/06/13 09:06:50;;;;;;;26.45;14.88;;;;;;;;;;5076241;28;20024;-44
2021/06/13 09:09:20;;;;;;;4.47;3.15;;;;;;;;;;5063801;28;20048;-44
2021/06/13 09:12:00;;;;;;;20.50;13.60;;;;;;;;;;5048932;28;20031;-44
2021/06/13 09:14:28;;;;;;;4.78;2.45;;;;;;;;;;5048746;28;20102;-45
2021/06/13 09:16:56;;;;;;;4.40;3.40;;;;;;;;;;5049291;28;20082;-44
2021/06/13 09:19:22;;;;;;;6.35;2.00;;;;;;;;;;5049211;28;20190;-45
2021/06/13 09:21:49;;;;;;;9.30;6.22;;;;;;;;;;5049022;28;20029;-44
2021/06/13 09:24:24;;;;;;;23.95;14.45;;;;;;;;;;5048680;28;20043;-46
2021/06/13 09:26:55;;;;;;;32.90;20.60;;;;;;;;;;5048393;28;20070;-46
2021/06/13 09:29:22;;;;;;;48.85;25.55;;;;;;;;;;5048364;28;20484;-46
2021/06/13 09:32:01;;;;;;;58.97;30.98;;;;;;;;;;5048304;28;20112;-45
2021/06/13 09:34:27;;;;;;;16.20;5.38;;;;;;;;;;5049292;28;20016;-48
2021/06/13 09:37:03;;;;;;;3.80;1.80;;;;;;;;;;5047666;28;20036;-46
2021/06/13 09:39:29;;;;;;;22.60;5.95;;;;;;;;;;5048586;28;20155;-45
2021/06/13 09:41:55;;;;;;;25.33;7.93;;;;;;;;;;5048535;28;20067;-45
2021/06/13 09:44:21;;;;;;;28.52;10.25;;;;;;;;;;5048530;28;20044;-45
2021/06/13 09:46:52;;;;;;;15.75;7.22;;;;;;;;;;5048643;28;20028;-45
2021/06/13 09:49:19;;;;;;;16.48;8.88;;;;;;;;;;5048236;28;20095;-46
2021/06/13 09:51:49;;;;;;;22.95;14.38;;;;;;;;;;5048451;28;20672;-45
2021/06/13 09:54:26;;;;;;;11.93;6.82;;;;;;;;;;5048166;28;20039;-45
2021/06/13 09:56:53;;;;;;;10.10;5.88;;;;;;;;;;5048185;28;20025;-46
2021/06/13 09:59:26;;;;;;;117.57;92.25;;;;;;;;;;5048224;28;20198;-45
2021/06/13 10:01:53;;;;;;;26.48;22.88;;;;;;;;;;5047832;28;20468;-47
2021/06/13 10:04:27;;;;;;;30.38;19.33;;;;;;;;;;5047633;28;20029;-46
2021/06/13 10:06:58;;;;;;;64.90;48.08;;;;;;;;;;5062369;28;20159;-46
2021/06/13 10:09:34;;;;;;;17.67;13.45;;;;;;;;;;5047946;28;20060;-46
2021/06/13 10:12:05;;;;;;;34.10;19.38;;;;;;;;;;5047873;28;20070;-47
2021/06/13 10:14:31;;;;;;;;;;;;;;;;;;5048066;28;20049;-44
2021/06/13 10:16:57;;;;;;;19.17;11.90;;;;;;;;;;5047617;28;21060;-46
2021/06/13 10:19:28;;;;;;;26.08;14.98;;;;;;;;;;5048172;28;20025;-47
2021/06/13 10:21:56;;;;;;;25.23;16.60;;;;;;;;;;5047775;28;20024;-44
2021/06/13 10:24:23;;;;;;;16.42;8.95;;;;;;;;;;5047610;28;20066;-46
2021/06/13 10:26:53;;;;;;;27.70;16.75;;;;;;;;;;5047744;28;20036;-47
2021/06/13 10:29:20;;;;;;;6.68;4.75;;;;;;;;;;5047546;28;20476;-47
2021/06/13 10:31:50;;;;;;;8.32;4.55;;;;;;;;;;5047500;28;20358;-44
2021/06/13 10:34:17;;;;;;;4.32;2.72;;;;;;;;;;5047531;28;20017;-47
2021/06/13 10:36:44;;;;;;;6.05;1.73;;;;;;;;;;5047616;28;20028;-46
2021/06/13 10:39:11;;;;;;;9.02;1.90;;;;;;;;;;5042744;28;20016;-46
2021/06/13 10:41:38;;;;;;;10.30;5.93;;;;;;;;;;5047839;28;20599;-46
2021/06/13 10:44:06;;;;;;;4.07;2.10;;;;;;;;;;5047408;28;20040;-46
2021/06/13 10:46:32;;;;;;;15.57;6.43;;;;;;;;;;5047184;28;20143;-46
2021/06/13 10:48:59;;;;;;;13.05;6.97;;;;;;;;;;5036736;28;20024;-45
2021/06/13 10:51:42;;;;;;;22.33;10.48;;;;;;;;;;5047307;28;20045;-46
2021/06/13 10:54:28;;;;;;;12.38;5.30;;;;;;;;;;5047217;28;20040;-45
2021/06/13 10:57:17;;;;;;;7.22;2.45;;;;;;;;;;5047210;28;20059;-45
2021/06/13 10:59:49;;;;;;;14.57;5.13;;;;;;;;;;5047453;28;20852;-45
2021/06/13 11:02:22;;;;;;;17.02;4.85;;;;;;;;;;5046723;28;20400;-45
2021/06/13 11:04:49;;;;;;;12.10;3.22;;;;;;;;;;5046661;28;20072;-48
2021/06/13 11:07:38;;;;;;;28.15;13.80;;;;;;;;;;5046954;28;20029;-46
2021/06/13 11:10:11;;;;;;;3.97;2.35;;;;;;;;;;5046890;28;20744;-45
2021/06/13 11:12:40;;;;;;;27.90;7.97;;;;;;;;;;5047451;28;20504;-48
2021/06/13 11:15:06;;;;;;;14.68;5.32;;;;;;;;;;5046233;28;20099;-45
2021/06/13 11:18:01;;;;;;;12.43;3.17;;;;;;;;;;5046723;28;20031;-47
2021/06/13 11:20:32;;;;;;;5.88;2.00;;;;;;;;;;5045625;28;20091;-47
2021/06/13 11:22:59;;;;;;;6.30;2.67;;;;;;;;;;5046378;28;20060;-47
2021/06/13 11:25:27;;;;;;;2.75;1.63;;;;;;;;;;5046455;28;20028;-46
2021/06/13 11:28:12;;;;;;;2.83;1.40;;;;;;;;;;5046459;28;20029;-45
2021/06/13 11:30:49;;;;;;;5.00;3.28;;;;;;;;;;5046111;28;20154;-48
2021/06/13 11:33:35;;;;;;;3.08;2.22;;;;;;;;;;5046114;28;20028;-45
2021/06/13 11:36:01;;;;;;;2.78;2.00;;;;;;;;;;5046570;28;20032;-46
2021/06/13 11:38:29;;;;;;;15.02;11.50;;;;;;;;;;5046395;28;20112;-45
2021/06/13 11:40:55;;;;;;;8.38;5.25;;;;;;;;;;5046225;28;20156;-46
2021/06/13 11:43:25;;;;;;;26.25;14.30;;;;;;;;;;5046564;28;20041;-45
2021/06/13 11:45:59;;;;;;;7.45;5.07;;;;;;;;;;5046414;28;20580;-43
2021/06/13 11:48:26;;;;;;;3.97;2.53;;;;;;;;;;5046261;28;20540;-45
2021/06/13 11:51:11;;;;;;;11.55;8.35;;;;;;;;;;5046201;28;20039;-46
2021/06/13 11:53:46;;;;;;;17.88;10.52;;;;;;;;;;5046096;28;20111;-47
2021/06/13 11:59:02;;;;;;;18.50;10.27;;;;;;;;;;5046092;28;20085;-46
2021/06/13 12:01:29;;;;;;;3.67;2.30;;;;;;;;;;5045745;28;20579;-49
2021/06/13 12:03:56;;;;;;;37.00;24.73;;;;;;;;;;5046552;28;20040;-46
2021/06/13 12:06:23;;;;;;;19.27;11.55;;;;;;;;;;5045894;28;20025;-46
2021/06/13 12:08:50;;;;;;;10.93;6.93;;;;;;;;;;5046002;28;20050;-46
2021/06/13 12:11:46;;;;;;;18.05;12.85;;;;;;;;;;5045591;28;20450;-47
2021/06/13 12:14:19;;;;;;;4.63;2.72;;;;;;;;;;5007341;28;20049;-45
2021/06/13 12:16:46;;;;;;;2.20;1.50;;;;;;;;;;5008156;28;20033;-46
2021/06/13 12:19:12;;;;;;;1.98;1.33;;;;;;;;;;5007921;28;20103;-45
2021/06/13 12:21:38;;;;;;;1.60;1.13;;;;;;;;;;5008443;28;20447;-45
2021/06/13 12:29:39;;;;;;;1.58;1.20;;;;;;;;;;5008428;28;20032;-46
2021/06/13 12:32:15;;;;;;;3.88;1.30;;;;;;;;;;5008192;28;20418;-45
2021/06/13 12:34:41;;;;;;;2.30;1.30;;;;;;;;;;5008208;28;20044;-44
2021/06/13 12:37:15;;;;;;;2.85;1.45;;;;;;;;;;5007960;28;20037;-45
2021/06/13 12:39:41;;;;;;;5.15;1.80;;;;;;;;;;5007791;28;21083;-45
2021/06/13 12:42:10;;;;;;;1.83;1.30;;;;;;;;;;5007982;28;20030;-45
2021/06/13 12:44:37;;;;;;;2.35;1.10;;;;;;;;;;5007799;28;20061;-45
2021/06/13 12:47:04;;;;;;;2.05;1.35;;;;;;;;;;5007389;28;20080;-45
2021/06/13 12:49:45;;;;;;;2.53;1.42;;;;;;;;;;5008777;28;20068;-45
2021/06/13 12:52:16;;;;;;;3.67;0.88;;;;;;;;;;5045451;28;20047;-45
2021/06/13 12:54:42;;;;;;;13.02;6.45;;;;;;;;;;5045558;28;20081;-45
2021/06/13 12:57:09;;;;;;;16.52;9.43;;;;;;;;;;5046093;28;20769;-44
2021/06/13 12:59:36;;;;;;;7.10;3.35;;;;;;;;;;5045317;28;20039;-44
2021/06/13 13:02:04;;;;;;;44.72;32.10;;;;;;;;;;5046023;28;20025;-44
2021/06/13 13:04:50;;;;;;;29.80;18.52;;;;;;;;;;5045244;28;20103;-44
2021/06/13 13:07:32;;;;;;;13.95;9.60;;;;;;;;;;5044956;28;20028;-45
2021/06/13 13:10:02;;;;;;;26.35;17.17;;;;;;;;;;5045280;28;20028;-44
2021/06/13 13:12:28;;;;;;;15.02;8.48;;;;;;;;;;5047061;28;20051;-44
2021/06/13 13:15:07;;;;;;;22.15;11.48;;;;;;;;;;5049025;28;20110;-43
2021/06/13 13:17:33;;;;;;;34.30;22.63;;;;;;;;;;5048905;28;20031;-44
2021/06/13 13:19:59;;;;;;;9.52;6.20;;;;;;;;;;5049241;28;20020;-43
2021/06/13 13:22:25;;;;;;;5.90;3.22;;;;;;;;;;5048954;28;20047;-45
2021/06/13 13:24:51;;;;;;;5.28;2.60;;;;;;;;;;5048471;28;20034;-46
2021/06/13 13:27:18;;;;;;;18.70;7.82;;;;;;;;;;5048529;28;20418;-45
2021/06/13 13:29:45;;;;;;;2.72;1.90;;;;;;;;;;5048873;28;20801;-45
2021/06/13 13:32:11;;;;;;;6.00;2.30;;;;;;;;;;5048408;28;20476;-45
2021/06/13 13:34:37;;;;;;;9.50;3.88;;;;;;;;;;5048776;28;20028;-45
2021/06/13 13:37:09;;;;;;;5.43;1.88;;;;;;;;;;5048461;28;20039;-46
2021/06/13 13:39:36;;;;;;;4.35;2.13;;;;;;;;;;5048826;28;20021;-45
2021/06/13 13:42:03;;;;;;;2.47;1.35;;;;;;;;;;5048534;28;20054;-46
2021/06/13 13:44:33;;;;;;;9.10;2.47;;;;;;;;;;5047938;28;20408;-45
2021/06/13 13:47:01;;;;;;;2.90;1.75;;;;;;;;;;5048348;28;20077;-45
2021/06/13 13:49:27;;;;;;;25.30;6.07;;;;;;;;;;5048335;28;20020;-45
2021/06/13 13:51:56;;;;;;;3.28;1.17;;;;;;;;;;5048108;28;20036;-45
2021/06/13 13:54:22;;;;;;;3.28;1.10;;;;;;;;;;5050390;28;20024;-49
2021/06/13 13:56:53;;;;;;;6.50;1.60;;;;;;;;;;5048063;28;20025;-46
2021/06/13 13:59:19;;;;;;;;;;;;;;;;;;5048814;28;20609;-43
2021/06/13 14:01:45;;;;;;;28.90;18.17;;;;;;;;;;5048267;28;19908;-45
2021/06/13 14:04:11;;;;;;;31.67;19.70;;;;;;;;;;5048035;28;20040;-46
2021/06/13 14:06:37;;;;;;;39.30;29.27;;;;;;;;;;5047916;28;20086;-45
2021/06/13 14:09:03;;;;;;;15.55;11.27;;;;;;;;;;5048096;28;20044;-44
2021/06/13 14:11:29;;;;;;;6.95;5.28;;;;;;;;;;5047687;28;20032;-45
2021/06/13 14:13:59;;;;;;;7.75;4.55;;;;;;;;;;5047912;28;20052;-46
2021/06/13 14:16:25;;;;;;;5.25;2.90;;;;;;;;;;5047936;28;20114;-45
2021/06/13 14:18:51;;;;;;;5.10;2.90;;;;;;;;;;5048164;28;20025;-45
2021/06/13 14:21:17;;;;;;;2.17;1.17;;;;;;;;;;5047580;28;20028;-46
2021/06/13 14:23:43;;;;;;;2.05;1.55;;;;;;;;;;5047668;28;20044;-48
2021/06/13 14:26:10;;;;;;;3.63;1.20;;;;;;;;;;5047909;28;20372;-48
2021/06/13 14:28:36;;;;;;;4.65;1.30;;;;;;;;;;5047603;28;20823;-45
2021/06/13 14:31:02;;;;;;;5.85;1.15;;;;;;;;;;5047396;28;20035;-45
2021/06/13 14:33:28;;;;;;;4.25;0.90;;;;;;;;;;5047362;28;20059;-45
2021/06/13 14:35:54;;;;;;;4.90;2.67;;;;;;;;;;5047910;28;20020;-45
2021/06/13 14:38:20;;;;;;;10.73;7.60;;;;;;;;;;5047375;28;20028;-46
2021/06/13 14:40:46;;;;;;;7.47;5.25;;;;;;;;;;5047802;28;20603;-46
2021/06/13 14:43:15;;;;;;;10.18;6.70;;;;;;;;;;5047022;28;20067;-46
2021/06/13 14:45:41;;;;;;;4.53;3.53;;;;;;;;;;5047584;28;21250;-45
2021/06/13 14:48:08;;;;;;;7.57;2.75;;;;;;;;;;5049951;28;20794;-45
2021/06/13 14:50:34;;;;;;;4.28;2.72;;;;;;;;;;5047055;28;20150;-45